createdAt,value
2018-12-13T00:01:56.517Z,103189.23
2018-12-13T00:04:24.900Z,103190.91
2018-12-13T00:06:53.294Z,103182.39
2018-12-13T00:09:21.729Z,103181.86
2018-12-13T00:11:50.098Z,103183.31
2018-12-13T00:14:18.596Z,103181.64
2018-12-13T00:16:47.016Z,103181.48
2018-12-13T00:19:15.713Z,103178.90
2018-12-13T00:21:44.368Z,103176.47
2018-12-13T00:24:13.003Z,103175.19
2018-12-13T00:26:41.408Z,103178.69
2018-12-13T00:29:09.813Z,103176.63
2018-12-13T00:31:38.283Z,103176.09
2018-12-13T00:34:06.720Z,103179.59
2018-12-13T00:36:39.671Z,103180.51
2018-12-13T00:39:07.377Z,103180.13
2018-12-13T00:41:35.753Z,103181.42
2018-12-13T00:44:04.173Z,103177.92
2018-12-13T00:46:32.590Z,103175.19
2018-12-13T00:49:00.970Z,103178.52
2018-12-13T00:51:29.496Z,103179.06
2018-12-13T00:53:57.902Z,103178.52
2018-12-13T00:56:26.274Z,103177.83
2018-12-13T00:58:54.703Z,103177.29
2018-12-13T01:01:23.137Z,103176.59
2018-12-13T01:03:51.659Z,103178.27
2018-12-13T01:06:20.045Z,103180.47
2018-12-13T01:08:48.502Z,103171.05
2018-12-13T01:11:23.656Z,103176.05
2018-12-13T01:13:52.077Z,103180.84
2018-12-13T01:16:24.537Z,103173.31
2018-12-13T01:18:53.089Z,103175.68
2018-12-13T01:21:21.503Z,103181.92
2018-12-13T01:23:50.188Z,103178.86
2018-12-13T01:26:18.712Z,103180.36
2018-12-13T01:28:47.118Z,103176.70
2018-12-13T01:31:15.555Z,103176.92
2018-12-13T01:33:43.980Z,103174.72
2018-12-13T01:36:12.910Z,103169.77
2018-12-13T01:38:41.329Z,103170.37
2018-12-13T01:41:09.785Z,103165.09
2018-12-13T01:43:38.203Z,103166.45
2018-12-13T01:46:06.624Z,103164.45
2018-12-13T01:48:35.046Z,103160.27
2018-12-13T01:51:03.429Z,103161.02
2018-12-13T01:53:31.818Z,103162.14
2018-12-13T01:56:00.263Z,103165.48
2018-12-13T01:58:28.729Z,103166.08
2018-12-13T02:00:57.109Z,103172.53
2018-12-13T02:03:25.560Z,103169.03
2018-12-13T02:05:53.967Z,103171.23
2018-12-13T02:08:22.348Z,103175.11
2018-12-13T02:10:50.769Z,103175.80
2018-12-13T02:13:19.184Z,103178.01
2018-12-13T02:15:47.653Z,103176.72
2018-12-13T02:18:16.104Z,103174.89
2018-12-13T02:20:44.601Z,103169.14
2018-12-13T02:23:13.049Z,103167.84
2018-12-13T02:25:41.635Z,103174.84
2018-12-13T02:28:10.147Z,103176.88
2018-12-13T02:30:38.671Z,103175.59
2018-12-13T02:33:07.089Z,103184.09
2018-12-13T02:35:35.472Z,103179.47
2018-12-13T02:38:03.980Z,103179.09
2018-12-13T02:40:32.440Z,103184.09
2018-12-13T02:43:00.829Z,103179.14
2018-12-13T02:45:29.214Z,103190.55
2018-12-13T02:47:57.832Z,103189.63
2018-12-13T02:50:26.260Z,103195.92
2018-12-13T02:52:54.634Z,103196.08
2018-12-13T02:55:23.030Z,103199.95
2018-12-13T02:57:51.429Z,103199.20
2018-12-13T03:00:19.824Z,103194.04
2018-12-13T03:02:48.284Z,103196.24
2018-12-13T03:05:16.713Z,103192.16
2018-12-13T03:07:45.120Z,103193.61
2018-12-13T03:10:13.526Z,103192.70
2018-12-13T03:12:41.916Z,103198.98
2018-12-13T03:15:10.517Z,103192.37
2018-12-13T03:17:38.961Z,103200.33
2018-12-13T03:20:07.632Z,103197.21
2018-12-13T03:22:36.103Z,103192.96
2018-12-13T03:25:04.889Z,103189.47
2018-12-13T03:27:33.605Z,103189.68
2018-12-13T03:30:02.369Z,103190.97
2018-12-13T03:32:30.918Z,103195.76
2018-12-13T03:34:59.294Z,103198.34
2018-12-13T03:37:27.678Z,103186.02
2018-12-13T03:39:56.091Z,103181.23
2018-12-13T03:42:24.509Z,103183.12
2018-12-13T03:44:53.004Z,103181.98
2018-12-13T03:47:21.697Z,103183.28
2018-12-13T03:49:50.080Z,103179.57
2018-12-13T03:52:18.585Z,103182.91
2018-12-13T03:54:46.998Z,103179.73
2018-12-13T03:57:15.724Z,103182.69
2018-12-13T03:59:44.126Z,103175.16
2018-12-13T04:02:12.591Z,103174.78
2018-12-13T04:04:41.018Z,103175.70
2018-12-13T04:07:09.417Z,103177.36
2018-12-13T04:09:37.847Z,103172.91
2018-12-13T04:12:06.257Z,103168.44
2018-12-13T04:14:34.650Z,103173.77
2018-12-13T04:17:03.288Z,103162.90
2018-12-13T04:19:31.771Z,103168.06
2018-12-13T04:22:01.667Z,103162.90
2018-12-13T04:24:30.686Z,103157.58
2018-12-13T04:26:59.067Z,103160.70
2018-12-13T04:29:27.623Z,103171.94
2018-12-13T04:31:56.217Z,103167.15
2018-12-13T04:34:24.599Z,103175.64
2018-12-13T04:36:52.992Z,103170.86
2018-12-13T04:39:21.405Z,103162.58
2018-12-13T04:41:49.865Z,102769.61
2018-12-13T04:44:18.257Z,103176.56
2018-12-13T04:46:46.682Z,103163.65
2018-12-13T04:49:15.120Z,103172.69
2018-12-13T04:51:43.640Z,103172.69
2018-12-13T04:54:12.041Z,103170.70
2018-12-13T04:56:40.689Z,103167.95
2018-12-13T04:59:09.216Z,103162.03
2018-12-13T05:01:37.628Z,103160.59
2018-12-13T05:04:05.996Z,103164.84
2018-12-13T05:06:34.378Z,103157.79
2018-12-13T05:09:04.543Z,103157.95
2018-12-13T05:11:32.977Z,103159.99
2018-12-13T05:14:01.344Z,103160.16
2018-12-13T05:16:29.781Z,103161.98
2018-12-13T05:18:58.169Z,103156.45
2018-12-13T05:21:26.575Z,103161.02
2018-12-13T05:23:55.054Z,103154.19
2018-12-13T05:26:23.464Z,103160.10
2018-12-13T05:28:52.038Z,103154.78
2018-12-13T05:31:20.624Z,103157.95
2018-12-13T05:33:49.433Z,103158.86
2018-12-13T05:36:17.814Z,103157.73
2018-12-13T05:38:46.529Z,103154.78
2018-12-13T05:41:15.037Z,103157.52
2018-12-13T05:43:45.432Z,103163.22
2018-12-13T05:46:13.866Z,103161.93
2018-12-13T05:48:42.344Z,103162.84
2018-12-13T05:51:10.722Z,103163.59
2018-12-13T05:53:39.145Z,103163.59
2018-12-13T05:56:07.662Z,103165.80
2018-12-13T05:58:36.044Z,103164.89
2018-12-13T06:01:04.473Z,103166.17
2018-12-13T06:03:32.888Z,103168.01
2018-12-13T06:06:01.558Z,103168.92
2018-12-13T06:08:29.971Z,103167.79
2018-12-13T06:10:58.437Z,103169.63
2018-12-13T06:13:26.932Z,103173.87
2018-12-13T06:15:55.421Z,103178.28
2018-12-13T06:18:23.804Z,103172.91
2018-12-13T06:20:52.383Z,103168.05
2018-12-13T06:23:20.792Z,103174.67
2018-12-13T06:25:50.509Z,103173.22
2018-12-13T06:28:19.418Z,103165.48
2018-12-13T06:30:47.864Z,103171.34
2018-12-13T06:33:16.419Z,103174.08
2018-12-13T06:35:45.067Z,103170.95
2018-12-13T06:38:13.548Z,103174.78
2018-12-13T06:40:42.000Z,103175.85
2018-12-13T06:43:10.433Z,103179.51
2018-12-13T06:45:38.935Z,103172.67
2018-12-13T06:48:07.324Z,103180.42
2018-12-13T06:50:35.704Z,103174.41
2018-12-13T06:53:04.126Z,103180.16
2018-12-13T06:55:32.648Z,103183.12
2018-12-13T06:58:01.172Z,103183.50
2018-12-13T07:00:29.587Z,103180.91
2018-12-13T07:02:57.997Z,103180.53
2018-12-13T07:05:26.395Z,103182.36
2018-12-13T07:07:54.904Z,103175.37
2018-12-13T07:10:23.341Z,103181.28
2018-12-13T07:12:51.830Z,103176.13
2018-12-13T07:15:20.635Z,103183.50
2018-12-13T07:17:49.016Z,103186.83
2018-12-13T07:20:17.429Z,103193.45
2018-12-13T07:22:45.874Z,103183.88
2018-12-13T07:25:14.294Z,103192.31
2018-12-13T07:27:42.856Z,103187.53
2018-12-13T07:30:11.529Z,103193.23
2018-12-13T07:32:40.117Z,103188.61
2018-12-13T07:35:08.774Z,103189.36
2018-12-13T07:37:37.328Z,103185.86
2018-12-13T07:40:07.202Z,103190.11
2018-12-13T07:42:35.620Z,103185.48
2018-12-13T07:45:04.697Z,103130.48
2018-12-13T07:47:33.195Z,103195.97
2018-12-13T07:50:01.577Z,103194.84
2018-12-13T07:52:30.190Z,103196.89
2018-12-13T07:54:58.582Z,103193.55
2018-12-13T07:57:27.089Z,103196.51
2018-12-13T07:59:55.485Z,103198.72
2018-12-13T08:02:24.239Z,103193.02
2018-12-13T08:04:52.616Z,103198.34
2018-12-13T08:07:21.560Z,103199.03
2018-12-13T08:09:49.937Z,103200.33
2018-12-13T08:12:18.920Z,103203.98
2018-12-13T08:14:47.361Z,103201.94
2018-12-13T08:17:15.778Z,103196.94
2018-12-13T08:19:44.465Z,103199.89
2018-12-13T08:22:12.883Z,103203.23
2018-12-13T08:24:41.405Z,103200.48
2018-12-13T08:27:09.772Z,103202.53
2018-12-13T08:29:38.189Z,103202.00
2018-12-13T08:32:06.559Z,103201.62
2018-12-13T08:34:34.931Z,103200.87
2018-12-13T08:37:03.542Z,103196.99
2018-12-13T08:39:32.027Z,103204.52
2018-12-13T08:42:00.536Z,103204.52
2018-12-13T08:44:28.999Z,103204.52
2018-12-13T08:46:57.460Z,103204.69
2018-12-13T08:49:25.848Z,103208.34
2018-12-13T08:51:54.270Z,103208.18
2018-12-13T08:54:22.637Z,103207.64
2018-12-13T08:56:51.228Z,103209.47
2018-12-13T08:59:19.653Z,103214.42
2018-12-13T09:01:48.092Z,103212.75
2018-12-13T09:04:16.518Z,103204.41
2018-12-13T09:06:44.941Z,103211.62
2018-12-13T09:09:13.350Z,103212.70
2018-12-13T09:11:41.829Z,103213.55
2018-12-13T09:14:10.310Z,103208.92
2018-12-13T09:16:38.704Z,103210.38
2018-12-13T09:19:07.075Z,103206.34
2018-12-13T09:21:35.813Z,103206.34
2018-12-13T09:24:04.293Z,103205.59
2018-12-13T09:26:32.657Z,103209.63
2018-12-13T09:29:01.082Z,103212.69
2018-12-13T09:31:29.492Z,103205.31
2018-12-13T09:33:57.857Z,103207.67
2018-12-13T09:36:26.301Z,103204.50
2018-12-13T09:38:54.853Z,103182.39
2018-12-13T09:41:23.819Z,103202.83
2018-12-13T09:43:52.204Z,103207.55
2018-12-13T09:46:20.686Z,103204.05
2018-12-13T09:48:49.710Z,103195.87
2018-12-13T09:51:18.239Z,103195.27
2018-12-13T09:53:46.660Z,103204.25
2018-12-13T09:56:15.042Z,103194.61
2018-12-13T09:58:43.463Z,103189.91
2018-12-13T10:01:11.845Z,103184.37
2018-12-13T10:03:40.269Z,103183.45
2018-12-13T10:06:08.715Z,103184.52
2018-12-13T10:08:37.532Z,103187.64
2018-12-13T10:11:06.030Z,103195.11
2018-12-13T10:13:34.543Z,103186.60
2018-12-13T10:16:03.014Z,103185.91
2018-12-13T10:18:31.880Z,103180.20
2018-12-13T10:21:00.469Z,103179.67
2018-12-13T10:23:29.577Z,103176.33
2018-12-13T10:25:59.646Z,103178.69
2018-12-13T10:28:28.315Z,103172.54
2018-12-13T10:30:56.802Z,103174.45
2018-12-13T10:33:25.189Z,103171.27
2018-12-13T10:35:54.176Z,103177.44
2018-12-13T10:38:22.944Z,103167.94
2018-12-13T10:40:52.629Z,103168.78
2018-12-13T10:43:24.636Z,103172.06
2018-12-13T10:45:53.368Z,103165.59
2018-12-13T10:48:21.782Z,103165.06
2018-12-13T10:50:50.869Z,103154.19
2018-12-13T10:53:19.262Z,103156.99
2018-12-13T10:55:48.701Z,103156.84
2018-12-13T10:58:17.116Z,103160.19
2018-12-13T11:00:51.792Z,103153.72
2018-12-13T11:03:26.355Z,103153.72
2018-12-13T11:05:54.905Z,103151.13
2018-12-13T11:08:23.281Z,103151.89
2018-12-13T11:10:51.693Z,103151.73
2018-12-13T11:13:20.257Z,103154.55
2018-12-13T11:15:48.758Z,103149.91
2018-12-13T11:18:17.176Z,103150.45
2018-12-13T11:20:46.474Z,103154.33
2018-12-13T11:23:16.730Z,103154.33
2018-12-13T11:25:45.295Z,103148.23
2018-12-13T11:28:24.961Z,103146.26
2018-12-13T11:30:53.374Z,103149.83
2018-12-13T11:33:21.749Z,103147.84
2018-12-13T11:35:50.873Z,103148.91
2018-12-13T11:38:19.396Z,103144.95
2018-12-13T11:40:47.908Z,103156.05
2018-12-13T11:43:16.472Z,103152.92
2018-12-13T11:45:45.439Z,103147.98
2018-12-13T11:48:15.274Z,103147.76
2018-12-13T11:50:43.679Z,103149.05
2018-12-13T11:53:12.060Z,103147.45
2018-12-13T11:55:41.492Z,103150.41
2018-12-13T11:58:12.072Z,103154.66
2018-12-13T12:00:40.546Z,103151.92
2018-12-13T12:03:09.011Z,103160.28
2018-12-13T12:05:37.412Z,103160.34
2018-12-13T12:08:05.896Z,103165.36
2018-12-13T12:10:34.496Z,103167.09
2018-12-13T12:13:03.039Z,103166.34
2018-12-13T12:15:31.607Z,103169.62
2018-12-13T12:18:00.289Z,103175.09
2018-12-13T12:20:29.061Z,103174.72
2018-12-13T12:22:58.181Z,103172.20
2018-12-13T12:25:26.688Z,103164.66
2018-12-13T12:27:55.092Z,103168.55
2018-12-13T12:30:23.488Z,103172.42
2018-12-13T12:32:51.976Z,103167.69
2018-12-13T12:35:20.427Z,103168.45
2018-12-13T12:37:48.824Z,103175.83
2018-12-13T12:40:17.217Z,103170.28
2018-12-13T12:42:45.735Z,103169.96
2018-12-13T12:45:14.377Z,103166.84
2018-12-13T12:47:42.945Z,103165.02
2018-12-13T12:50:11.480Z,103167.98
2018-12-13T12:52:41.028Z,103163.62
2018-12-13T12:55:09.444Z,103164.01
2018-12-13T12:57:38.497Z,103165.14
2018-12-13T13:00:08.785Z,103158.30
2018-12-13T13:02:37.557Z,103157.02
2018-12-13T13:05:06.617Z,103159.97
2018-12-13T13:07:35.016Z,103159.44
2018-12-13T13:10:03.977Z,103160.35
2018-12-13T13:12:32.410Z,103164.07
2018-12-13T13:15:01.070Z,103154.88
2018-12-13T13:17:29.432Z,103154.49
2018-12-13T13:19:58.161Z,103156.16
2018-12-13T13:22:26.536Z,103159.50
2018-12-13T13:24:54.942Z,103158.59
2018-12-13T13:27:26.208Z,103157.30
2018-12-13T13:29:55.556Z,103166.18
2018-12-13T13:32:23.986Z,103165.11
2018-12-13T13:34:52.361Z,103166.24
2018-12-13T13:37:20.800Z,103164.03
2018-12-13T13:39:50.032Z,103163.66
2018-12-13T13:42:19.377Z,103164.35
2018-12-13T13:44:50.384Z,103165.11
2018-12-13T13:47:19.245Z,103165.48
2018-12-13T13:49:47.797Z,103166.02
2018-12-13T13:52:16.337Z,103168.61
2018-12-13T13:54:44.812Z,103169.52
2018-12-13T13:57:13.202Z,103174.53
2018-12-13T13:59:41.624Z,103169.73
2018-12-13T14:02:09.992Z,103164.79
2018-12-13T14:04:38.369Z,103174.59
2018-12-13T14:07:06.845Z,103167.81
2018-12-13T14:09:38.093Z,103172.81
2018-12-13T14:12:06.633Z,103178.36
2018-12-13T14:14:35.277Z,103169.70
2018-12-13T14:17:04.257Z,103179.88
2018-12-13T14:19:32.659Z,103179.17
2018-12-13T14:22:01.057Z,103178.27
2018-12-13T14:24:29.712Z,103169.98
2018-12-13T14:26:58.393Z,103174.39
2018-12-13T14:29:26.781Z,103165.34
2018-12-13T14:31:55.166Z,103167.72
2018-12-13T14:34:23.611Z,103165.66
2018-12-13T14:36:52.177Z,103163.24
2018-12-13T14:39:20.785Z,103165.28
2018-12-13T14:41:49.326Z,103176.00
2018-12-13T14:44:17.717Z,103169.54
2018-12-13T14:46:46.118Z,103167.72
2018-12-13T14:49:16.237Z,103171.96
2018-12-13T14:51:45.275Z,103181.44
2018-12-13T14:57:00.455Z,103182.41
2018-12-13T14:59:28.860Z,103180.05
2018-12-13T15:01:57.525Z,103182.47
2018-12-13T15:04:26.409Z,103174.34
2018-12-13T15:06:55.429Z,103175.80
2018-12-13T15:09:30.380Z,103174.34
2018-12-13T15:11:58.748Z,103171.06
2018-12-13T15:14:27.116Z,103165.58
2018-12-13T15:16:55.525Z,103167.25
2018-12-13T15:19:23.966Z,103174.45
2018-12-13T15:21:52.385Z,103170.80
2018-12-13T15:24:20.924Z,103176.88
2018-12-13T15:26:49.417Z,103180.75
2018-12-13T15:29:17.941Z,103181.50
2018-12-13T15:31:46.362Z,103182.80
2018-12-13T15:34:14.809Z,103187.58
2018-12-13T15:36:43.252Z,103185.00
2018-12-13T15:39:12.028Z,103189.57
2018-12-13T15:41:40.470Z,103188.28
2018-12-13T15:44:09.148Z,103190.11
2018-12-13T15:46:37.555Z,103193.45
2018-12-13T15:49:06.092Z,103190.86
2018-12-13T15:51:34.683Z,103185.16
2018-12-13T15:54:03.467Z,103189.73
2018-12-13T15:56:31.849Z,103186.08
2018-12-13T15:59:01.881Z,103181.88
2018-12-13T16:01:30.324Z,103181.34
2018-12-13T16:03:58.715Z,103181.72
2018-12-13T16:06:27.090Z,103187.42
2018-12-13T16:08:55.518Z,103190.55
2018-12-13T16:11:23.918Z,103188.50
2018-12-13T16:13:52.296Z,103189.63
2018-12-13T16:16:20.734Z,103191.34
2018-12-13T16:18:49.778Z,103189.90
2018-12-13T16:21:18.157Z,103188.66
2018-12-13T16:23:47.118Z,103187.96
2018-12-13T16:26:15.847Z,103189.41
2018-12-13T16:28:44.295Z,103184.09
2018-12-13T16:31:12.741Z,103185.16
2018-12-13T16:33:41.119Z,103186.08
2018-12-13T16:36:09.500Z,103184.25
2018-12-13T16:38:38.040Z,103179.09
2018-12-13T16:41:06.448Z,103185.38
2018-12-13T16:43:35.009Z,103181.94
2018-12-13T16:46:03.622Z,103179.36
2018-12-13T16:48:32.000Z,103178.06
2018-12-13T16:51:00.490Z,103181.56
2018-12-13T16:53:29.392Z,103178.39
2018-12-13T16:55:58.141Z,103179.14
2018-12-13T16:58:26.637Z,103183.39
2018-12-13T17:00:55.121Z,103175.27
2018-12-13T17:03:36.649Z,103172.31
2018-12-13T17:06:05.546Z,103169.03
2018-12-13T17:08:34.096Z,103170.00
2018-12-13T17:11:03.772Z,103175.53
2018-12-13T17:13:32.589Z,103174.63
2018-12-13T17:16:01.084Z,103171.29
2018-12-13T17:18:29.485Z,103174.95
2018-12-13T17:20:57.969Z,103168.49
2018-12-13T17:23:26.899Z,103170.16
2018-12-13T17:25:55.364Z,103173.70
2018-12-13T17:28:23.892Z,103168.77
2018-12-13T17:30:52.417Z,103174.14
2018-12-13T17:33:20.782Z,103167.30
2018-12-13T17:35:49.400Z,103168.81
2018-12-13T17:38:17.824Z,103169.56
2018-12-13T17:40:46.215Z,103174.19
2018-12-13T17:43:14.749Z,103179.73
2018-12-13T17:45:43.291Z,103176.61
2018-12-13T17:48:11.886Z,103179.02
2018-12-13T17:50:40.906Z,103180.16
2018-12-13T17:53:09.339Z,103177.20
2018-12-13T17:55:37.914Z,103181.45
2018-12-13T17:58:07.457Z,103180.91
2018-12-13T18:00:42.623Z,103187.73
2018-12-13T18:03:11.097Z,103184.23
2018-12-13T18:05:39.465Z,103186.81
2018-12-13T18:08:07.824Z,103191.28
2018-12-13T18:10:36.279Z,103196.27
2018-12-13T18:13:04.699Z,103194.82
2018-12-13T18:15:33.269Z,103201.27
2018-12-13T18:18:01.780Z,103199.44
2018-12-13T18:20:30.266Z,103201.27
2018-12-13T18:22:59.017Z,103201.81
2018-12-13T18:25:27.420Z,103195.36
2018-12-13T18:27:55.825Z,103198.15
2018-12-13T18:30:24.223Z,103199.28
2018-12-13T18:32:52.632Z,103200.41
2018-12-13T18:35:21.645Z,103201.48
2018-12-13T18:37:50.208Z,103203.15
2018-12-13T18:40:18.743Z,103208.14
2018-12-13T18:42:47.959Z,103205.94
2018-12-13T18:45:16.787Z,103206.85
2018-12-13T18:47:45.225Z,103201.11
2018-12-13T18:50:13.825Z,103208.09
2018-12-13T18:52:42.209Z,103213.42
2018-12-13T18:55:10.690Z,103207.19
2018-12-13T18:57:39.296Z,103208.84
2018-12-13T19:00:08.140Z,103215.13
2018-12-13T19:02:40.105Z,103212.77
2018-12-13T19:05:08.611Z,103210.94
2018-12-13T19:07:37.136Z,103210.02
2018-12-13T19:10:06.171Z,103208.78
2018-12-13T19:12:34.685Z,103216.31
2018-12-13T19:15:03.708Z,103216.84
2018-12-13T19:17:32.149Z,103217.72
2018-12-13T19:20:00.557Z,103218.47
2018-12-13T19:22:29.171Z,103219.00
2018-12-13T19:24:58.504Z,103219.37
2018-12-13T19:27:26.939Z,103227.50
2018-12-13T19:29:55.356Z,103228.04
2018-12-13T19:32:23.820Z,103225.08
2018-12-13T19:34:52.201Z,103228.04
2018-12-13T19:37:20.661Z,103226.75
2018-12-13T19:39:49.565Z,103231.91
2018-12-13T19:42:17.985Z,103231.37
2018-12-13T19:44:46.362Z,103235.45
2018-12-13T19:47:15.288Z,103229.00
2018-12-13T19:49:43.716Z,103225.88
2018-12-13T19:52:12.118Z,103233.03
2018-12-13T19:54:40.624Z,103230.45
2018-12-13T19:57:09.031Z,103232.12
2018-12-13T19:59:37.570Z,103233.41
2018-12-13T20:02:06.510Z,103234.66
2018-12-13T20:04:35.189Z,103237.23
2018-12-13T20:07:03.676Z,103238.90
2018-12-13T20:09:32.128Z,103201.05
2018-12-13T20:12:00.505Z,103237.98
2018-12-13T20:14:28.869Z,103243.14
2018-12-13T20:16:57.343Z,103241.85
2018-12-13T20:19:25.724Z,103245.34
2018-12-13T20:21:54.154Z,103247.22
2018-12-13T20:24:22.589Z,103249.64
2018-12-13T20:26:51.312Z,103255.01
2018-12-13T20:29:20.534Z,103260.92
2018-12-13T20:31:48.966Z,103257.80
2018-12-13T20:34:17.368Z,103257.63
2018-12-13T20:36:46.072Z,103253.05
2018-12-13T20:39:14.512Z,103260.25
2018-12-13T20:41:43.570Z,103256.59
2018-12-13T20:44:11.968Z,103256.22
2018-12-13T20:46:40.388Z,103260.13
2018-12-13T20:49:08.783Z,103256.47
2018-12-13T20:51:37.180Z,103258.13
2018-12-13T20:54:05.701Z,103254.27
2018-12-13T20:56:34.103Z,103259.05
2018-12-13T20:59:02.515Z,103255.55
2018-12-13T21:01:31.264Z,103257.97
2018-12-13T21:03:59.793Z,103258.20
2018-12-13T21:06:29.157Z,103255.22
2018-12-13T21:08:57.731Z,103257.42
2018-12-13T21:11:26.133Z,103256.47
2018-12-13T21:13:54.537Z,103252.39
2018-12-13T21:16:23.137Z,103251.48
2018-12-13T21:18:52.191Z,103251.10
2018-12-13T21:21:20.633Z,103252.39
2018-12-13T21:23:49.217Z,103241.16
2018-12-13T21:26:17.611Z,103240.45
2018-12-13T21:28:45.986Z,103244.32
2018-12-13T21:31:14.445Z,103238.78
2018-12-13T21:33:42.837Z,103239.53
2018-12-13T21:36:11.323Z,103246.16
2018-12-13T21:38:39.735Z,103244.32
2018-12-13T21:41:13.520Z,103238.62
2018-12-13T21:43:38.568Z,103253.55
2018-12-13T21:46:06.979Z,103242.49
2018-12-13T21:48:35.376Z,103246.60
2018-12-13T21:51:03.777Z,103243.61
2018-12-13T21:53:32.232Z,103241.45
2018-12-13T21:56:00.673Z,103242.73
2018-12-13T21:58:29.641Z,103233.84
2018-12-13T22:00:58.055Z,103236.59
2018-12-13T22:03:26.696Z,103245.45
2018-12-13T22:05:55.478Z,103240.28
2018-12-13T22:08:23.912Z,103247.48
2018-12-13T22:10:52.374Z,103247.77
2018-12-13T22:13:20.773Z,103243.36
2018-12-13T22:15:49.292Z,103244.11
2018-12-13T22:18:17.801Z,103246.69
2018-12-13T22:20:46.280Z,103243.40
2018-12-13T22:23:14.817Z,103247.81
2018-12-13T22:25:43.221Z,103250.02
2018-12-13T22:28:11.620Z,103253.13
2018-12-13T22:30:40.624Z,103247.81
2018-12-13T22:33:09.041Z,103250.77
2018-12-13T22:35:37.436Z,103247.09
2018-12-13T22:38:05.904Z,103252.05
2018-12-13T22:40:34.929Z,103253.67
2018-12-13T22:43:03.309Z,103247.60
2018-12-13T22:45:31.796Z,103247.23
2018-12-13T22:48:00.179Z,103254.05
2018-12-13T22:50:28.684Z,103247.23
2018-12-13T22:52:57.131Z,103248.52
2018-12-13T22:55:25.702Z,103252.42
2018-12-13T22:57:54.114Z,103250.02
2018-12-13T23:00:22.542Z,103251.47
2018-12-13T23:02:50.924Z,103252.38
2018-12-13T23:05:19.857Z,103248.72
2018-12-13T23:07:48.309Z,103245.40
2018-12-13T23:10:16.715Z,103251.64
2018-12-13T23:12:45.150Z,103252.72
2018-12-13T23:15:13.724Z,103249.06
2018-12-13T23:17:42.214Z,103249.59
2018-12-13T23:20:10.787Z,103250.52
2018-12-13T23:22:39.275Z,103249.97
2018-12-13T23:25:07.924Z,103261.20
2018-12-13T23:27:36.460Z,103252.22
2018-12-13T23:30:06.001Z,103254.42
2018-12-13T23:32:34.612Z,103259.91
2018-12-13T23:35:03.154Z,103258.08
2018-12-13T23:37:31.808Z,103262.87
2018-12-13T23:40:00.256Z,103255.72
2018-12-13T23:42:28.658Z,103251.68
2018-12-13T23:44:57.445Z,103252.80
2018-12-13T23:47:25.860Z,103248.93
2018-12-13T23:49:54.232Z,103252.26
2018-12-13T23:52:22.678Z,103254.09
2018-12-13T23:54:51.348Z,103226.26
2018-12-13T23:57:19.780Z,103256.09
2018-12-13T23:59:48.208Z,103252.97
